Flight Track Log - Related Links

Times and Time Zones

All times are in EDT time to prevent confusion due to time zone crossing. See the JBU1513 flight status page for this flight to view local times or setup timezone preferences in your user account.

Time Position Orientation Groundspeed Altitude Reporting Facility
EDT Latitude Longitude Course Direction KTS MPH feet Rate Location/Type
Mon 11:59:31 PM 30.1712 -97.6821 193° South 148 170 2,000  Level FlightAware ADS-B
Mon 11:59:57 PM 30.1544 -97.6913 205° Southwest 148 170 2,400 968 Climbing FlightAware ADS-B
Tue 12:00:02 AM 30.1526 -97.6952 242° Southwest 174 200 2,500 818 Climbing FlightAware ADS-B
Tue 12:00:19 AM 30.1523 -97.7126 269° West 183 211 2,700 783 Climbing FlightAware ADS-B
Tue 12:00:25 AM 30.1549 -97.7191 295° West 218 251 2,800 667 Climbing FlightAware ADS-B
Tue 12:00:28 AM 30.1565 -97.7222 301° West 225 259 2,800 750 Level FlightAware ADS-B
Tue 12:00:33 AM 30.1598 -97.7274 306° West 236 272 2,900 1,200 Climbing FlightAware ADS-B
Tue 12:00:48 AM 30.1707 -97.7436 308° West 261 300 3,200 1,742 Climbing FlightAware ADS-B
Tue 12:01:04 AM 30.1831 -97.7620 308° West 276 318 3,800 2,640 Climbing FlightAware ADS-B
Tue 12:01:13 AM 30.1898 -97.7728 306° West 278 320 4,300 3,360 Climbing FlightAware ADS-B
Tue 12:01:29 AM 30.2002 -97.7924 302° West 277 319 5,200 3,097 Climbing FlightAware ADS-B
Tue 12:01:44 AM 30.2100 -97.8117 300° West 282 325 5,900 2,903 Climbing FlightAware ADS-B
Tue 12:02:00 AM 30.2207 -97.8325 301° West 285 328 6,700 3,097 Climbing FlightAware ADS-B
Tue 12:02:15 AM 30.2314 -97.8534 301° West 289 333 7,500 2,800 Climbing FlightAware ADS-B
Tue 12:02:30 AM 30.2417 -97.8737 300° West 295 339 8,100 2,516 Climbing FlightAware ADS-B
Tue 12:02:46 AM 30.2526 -97.8951 301° West 300 345 8,800 2,914 Climbing FlightAware ADS-B
Tue 12:03:05 AM 30.2661 -97.9214 301° West 302 348 9,800 2,471 Climbing FlightAware ADS-B
Tue 12:03:37 AM 30.2890 -97.9650 301° West 315 362 10,900 1,574 Climbing FlightAware ADS-B
Tue 12:04:06 AM 30.3122 -98.0112 300° West 300 345 11,400 1,219 Climbing FlightAware ADS-B
Tue 12:04:41 AM 30.3420 -98.0700 300° West 376 433 12,200 1,800 Climbing FlightAware ADS-B
Tue 12:05:06 AM 30.3651 -98.1144 301° West 300 345 13,200 2,364 Climbing FlightAware ADS-B
Tue 12:05:14 AM 30.3732 -98.1276 305° West 382 440 13,500 2,000 Climbing FlightAware ADS-B
Tue 12:05:39 AM 30.4096 -98.1555 327° Northwest 383 441 14,300 2,110 Climbing FlightAware ADS-B
Tue 12:06:45 AM 30.5220 -98.1930 344° North 386 444 16,700 2,272 Climbing FlightAware ADS-B
Tue 12:07:22 AM 30.5840 -98.2160 342° North 381 438 18,200 2,308 Climbing FlightAware ADS-B
Tue 12:07:50 AM 30.6310 -98.2330 343° North 384 442 19,200 2,091 Climbing FlightAware ADS-B
Tue 12:08:28 AM 30.6960 -98.2560 343° North 383 441 20,500 1,808 Climbing FlightAware ADS-B
Tue 12:09:03 AM 30.7550 -98.2770 343° North 391 450 21,400 1,522 Climbing FlightAware ADS-B
Tue 12:09:35 AM 30.8110 -98.2960 344° North 396 456 22,200 1,397 Climbing FlightAware ADS-B
Tue 12:10:16 AM 30.8860 -98.3200 345° North 404 465 23,100 1,286 Climbing FlightAware ADS-B
Tue 12:10:45 AM 30.9360 -98.3500 333° Northwest 413 475 23,700 1,250 Climbing FlightAware ADS-B
Tue 12:11:04 AM 30.9580 -98.3820 309° West 418 481 24,100 1,355 Climbing FlightAware ADS-B
Tue 12:11:16 AM 30.9680 -98.4060 296° West 419 482 24,400 1,250 Climbing FlightAware ADS-B
Tue 12:11:52 AM 30.9930 -98.4840 291° West 425 489 25,100 857 Climbing FlightAware ADS-B
Tue 12:12:26 AM 31.0160 -98.5580 290° West 440 506 25,400 600 Climbing FlightAware ADS-B
Tue 12:13:02 AM 31.0420 -98.6410 290° West 450 518 25,800 750 Climbing FlightAware ADS-B
Tue 12:13:38 AM 31.0680 -98.7220 291° West 459 528 26,300 794 Climbing FlightAware ADS-B
Tue 12:14:10 AM 31.0920 -98.7980 290° West 464 534 26,700 771 Climbing FlightAware ADS-B
Tue 12:14:48 AM 31.1190 -98.8860 290° West 466 536 27,200 811 Climbing FlightAware ADS-B
Tue 12:15:24 AM 31.1470 -98.9740 290° West 468 539 27,700 750 Climbing FlightAware ADS-B
Tue 12:16:00 AM 31.1740 -99.0590 290° West 472 543 28,100 794 Climbing FlightAware ADS-B
Tue 12:16:32 AM 31.1970 -99.1350 290° West 473 544 28,600 818 Climbing FlightAware ADS-B
Tue 12:17:06 AM 31.2220 -99.2160 290° West 476 548 29,000 750 Climbing FlightAware ADS-B
Tue 12:17:44 AM 31.2510 -99.3090 290° West 480 552 29,500 1,029 Climbing FlightAware ADS-B
Tue 12:18:16 AM 31.2760 -99.3870 291° West 477 549 30,200 1,324 Climbing FlightAware ADS-B
Tue 12:18:52 AM 31.3030 -99.4750 290° West 473 544 31,000 1,545 Climbing FlightAware ADS-B
Tue 12:19:22 AM 31.3240 -99.5450 289° West 468 539 31,900 1,250 Climbing FlightAware ADS-B
Tue 12:20:04 AM 31.3550 -99.6460 290° West 471 542 32,500 811 Climbing FlightAware ADS-B
Tue 12:20:36 AM 31.3790 -99.7240 290° West 477 549 32,900 706 Climbing FlightAware ADS-B
Tue 12:21:12 AM 31.4050 -99.8100 290° West 481 554 33,300 845 Climbing FlightAware ADS-B
Tue 12:21:47 AM 31.4310 -99.8940 290° West 479 551 33,900 1,000 Climbing FlightAware ADS-B
Tue 12:22:24 AM 31.4590 -99.9860 290° West 479 551 34,500 1,068 Climbing FlightAware ADS-B
Tue 12:23:00 AM 31.4860 -100.0740 290° West 476 548 35,200 1,059 Climbing FlightAware ADS-B
Tue 12:23:32 AM 31.5100 -100.1530 290° West 475 547 35,700 706 Climbing FlightAware ADS-B
Tue 12:24:08 AM 31.5350 -100.2390 289° West 478 550 36,000 250 Climbing FlightAware ADS-B
Tue 12:24:44 AM 31.5620 -100.3280 290° West 477 549 36,000  Level FlightAware ADS-B
Tue 12:25:18 AM 31.5870 -100.4110 289° West 478 550 36,000  Level FlightAware ADS-B
Tue 12:25:52 AM 31.6110 -100.4930 289° West 480 552 36,000  Level FlightAware ADS-B
Tue 12:26:28 AM 31.6380 -100.5830 289° West 480 552 36,000  Level FlightAware ADS-B
Tue 12:27:04 AM 31.6650 -100.6720 290° West 480 552 36,000  Level FlightAware ADS-B
Tue 12:27:36 AM 31.6870 -100.7460 289° West 479 551 36,000  Level FlightAware ADS-B
Tue 12:28:12 AM 31.7140 -100.8390 289° West 479 551 36,000  Level FlightAware ADS-B
Tue 12:28:48 AM 31.7400 -100.9260 289° West 479 551 36,000  Level FlightAware ADS-B
Tue 12:29:24 AM 31.7660 -101.0150 289° West 480 552 36,000  Level FlightAware ADS-B
Tue 12:29:56 AM 31.7890 -101.0950 289° West 481 554 36,000  Level FlightAware ADS-B
Tue 12:30:32 AM 31.8150 -101.1840 289° West 480 552 36,000  Level FlightAware ADS-B
Tue 12:31:08 AM 31.8410 -101.2720 289° West 480 552 36,000  Level FlightAware ADS-B
Tue 12:31:42 AM 31.8650 -101.3550 289° West 479 551 36,000  Level FlightAware ADS-B
Tue 12:32:19 AM 31.8910 -101.4460 289° West 479 551 36,000  Level FlightAware ADS-B
Tue 12:32:54 AM 31.9160 -101.5330 289° West 479 551 36,000  Level FlightAware ADS-B
Tue 12:33:32 AM 31.9390 -101.6150 288° West 479 551 36,000  Level FlightAware ADS-B
Tue 12:34:10 AM 31.9700 -101.7210 289° West 480 552 36,000  Level FlightAware ADS-B
Tue 12:34:47 AM 31.9960 -101.8100 289° West 478 550 36,000  Level FlightAware ADS-B
Tue 12:35:18 AM 32.0180 -101.8870 289° West 478 550 36,000  Level FlightAware ADS-B
Tue 12:35:58 AM 32.0400 -101.9700 287° West 478 550 36,000  Level FlightAware ADS-B
Tue 12:36:34 AM 32.0610 -102.0460 288° West 478 550 36,000  Level FlightAware ADS-B
Tue 12:37:10 AM 32.0820 -102.1210 288° West 478 550 36,000  Level FlightAware ADS-B
Tue 12:37:46 AM 32.1030 -102.1970 288° West 478 550 36,000  Level FlightAware ADS-B
Tue 12:38:22 AM 32.1240 -102.2730 288° West 478 550 36,000  Level FlightAware ADS-B
Tue 12:38:58 AM 32.1450 -102.3490 288° West 478 550 36,000  Level FlightAware ADS-B
Tue 12:39:34 AM 32.1660 -102.4250 288° West 478 550 36,000  Level FlightAware ADS-B
Tue 12:40:10 AM 32.1870 -102.5020 288° West 478 550 36,000  Level FlightAware ADS-B
Tue 12:40:46 AM 32.2080 -102.5780 288° West 478 550 36,000  Level FlightAware ADS-B
Tue 12:41:22 AM 32.2280 -102.6540 287° West 478 550 36,000  Level FlightAware ADS-B
Tue 12:41:59 AM 32.2500 -102.7320 288° West 478 550 36,000  Level FlightAware ADS-B
Tue 12:42:35 AM 32.2710 -102.8080 288° West 478 550 36,000  Level FlightAware ADS-B
Tue 12:43:11 AM 32.2920 -102.8840 288° West 478 550 36,000  Level FlightAware ADS-B
Tue 12:43:47 AM 32.3130 -102.9600 288° West 478 550 36,000  Level FlightAware ADS-B
Tue 12:44:23 AM 32.3340 -103.0360 288° West 478 550 36,000  Level FlightAware ADS-B
Tue 12:45:01 AM 32.3560 -103.1170 288° West 478 550 36,000  Level FlightAware ADS-B
Tue 12:48:23 AM 32.5386 -103.7897 287° West 465 535 36,000  Level Albuquerque Center
Tue 12:49:24 AM 32.5775 -103.9378 287° West 469 540 36,000  Level Albuquerque Center
Tue 12:50:25 AM 32.6236 -104.0953 289° West 466 536 36,000  Level Albuquerque Center
Tue 12:51:26 AM 32.6619 -104.2417 287° West 463 533 36,000  Level Albuquerque Center
Tue 12:52:00 AM 32.6255 -104.1244 287° West  Level FlightAware Approximate
Tue 12:52:26 AM 32.6997 -104.3903 287° West 467 537 36,000  Level Albuquerque Center
Tue 12:53:00 AM 32.6632 -104.2692 287° West  Level FlightAware Approximate
Tue 12:53:26 AM 32.7383 -104.5394 287° West 471 542 36,000  Level Albuquerque Center
Tue 12:54:27 AM 32.7783 -104.6986 287° West 467 537 36,000  Level Albuquerque Center
Tue 12:55:27 AM 32.8164 -104.8472 287° West 469 540 36,000  Level Albuquerque Center
Tue 12:56:28 AM 32.8547 -104.9944 287° West 465 535 36,000  Level Albuquerque Center
Tue 12:57:28 AM 32.8919 -105.1433 287° West 468 539 36,000  Level Albuquerque Center
Tue 12:58:29 AM 32.9272 -105.2844 287° West 468 539 36,000  Level Albuquerque Center
Tue 12:59:29 AM 32.9683 -105.4406 287° West 471 542 36,000  Level Albuquerque Center
Tue 01:00:30 AM 33.0047 -105.5883 286° West 466 536 36,000  Level Albuquerque Center
Tue 01:01:30 AM 33.0386 -105.7233 287° West 471 542 36,000  Level Albuquerque Center
Tue 01:02:31 AM 33.0750 -105.8711 286° West 468 539 36,000  Level Albuquerque Center
Tue 01:03:31 AM 33.1119 -106.0214 286° West 471 542 36,000  Level Albuquerque Center
Tue 01:04:32 AM 33.1483 -106.1700 286° West 470 541 36,000 -50 Level Albuquerque Center
Tue 01:05:32 AM 33.1839 -106.3181 286° West 468 539 35,900  Descending Albuquerque Center
Tue 01:06:33 AM 33.2203 -106.4647 287° West 466 536 36,000  Climbing Albuquerque Center
Tue 01:07:33 AM 33.2553 -106.6147 286° West 469 540 35,900  Descending Albuquerque Center
Tue 01:08:34 AM 33.2983 -106.7950 286° West 472 543 36,000 50 Climbing Albuquerque Center
Tue 01:09:34 AM 33.3344 -106.9450 286° West 473 544 36,000 -50 Level Albuquerque Center
Tue 01:10:35 AM 33.3694 -107.0947 286° West 471 542 35,900  Descending Albuquerque Center
Tue 01:11:35 AM 33.4056 -107.2431 286° West 470 541 36,000 50 Climbing Albuquerque Center
Tue 01:12:36 AM 33.4406 -107.3953 285° West 475 547 36,000  Level Albuquerque Center
Tue 01:13:36 AM 33.4753 -107.5461 285° West 474 545 36,000 -50 Level Albuquerque Center
Tue 01:14:36 AM 33.5106 -107.6967 286° West 473 544 35,900  Descending Albuquerque Center
Tue 01:15:37 AM 33.5444 -107.8503 285° West 477 549 36,000 50 Climbing Albuquerque Center
Tue 01:16:37 AM 33.5797 -108.0003 286° West 474 545 36,000  Level Albuquerque Center
Tue 01:17:38 AM 33.6158 -108.1611 285° West 477 549 36,000  Level Albuquerque Center
Tue 01:18:38 AM 33.6506 -108.3114 286° West 473 544 36,000  Level Albuquerque Center
Tue 01:19:38 AM 33.6842 -108.4614 285° West 470 541 36,000  Level Albuquerque Center
Tue 01:20:39 AM 33.7172 -108.6131 285° West 472 543 36,000  Level Albuquerque Center
Tue 01:21:39 AM 33.7519 -108.7642 285° West 473 544 36,000  Level Albuquerque Center
Tue 01:22:40 AM 33.7842 -108.9158 284° West 472 543 36,000  Level Albuquerque Center
Tue 01:23:40 AM 33.8175 -109.0700 285° West 475 547 36,000  Level Albuquerque Center
Tue 01:24:41 AM 33.8508 -109.2228 285° West 477 549 36,000  Level Albuquerque Center
Tue 01:25:41 AM 33.8844 -109.3775 285° West 479 551 36,000  Level Albuquerque Center
Tue 01:30:52 AM 34.0560 -110.1990 285° West 480 552 36,000  Level FlightAware ADS-B
Tue 01:31:31 AM 34.0790 -110.3080 284° West 480 552 36,000  Level FlightAware ADS-B
Tue 01:32:03 AM 34.0960 -110.3940 283° West 480 552 36,000 88 Level FlightAware ADS-B
Tue 01:32:39 AM 34.1150 -110.4870 284° West 479 551 36,100  Climbing FlightAware ADS-B
Tue 01:33:15 AM 34.1340 -110.5800 284° West 477 549 36,000 -87 Descending FlightAware ADS-B
Tue 01:33:48 AM 34.1510 -110.6640 284° West 477 549 36,000  Level FlightAware ADS-B
Tue 01:34:25 AM 34.1710 -110.7610 284° West 477 549 36,000  Level FlightAware ADS-B
Tue 01:34:59 AM 34.1880 -110.8480 283° West 477 549 36,000  Level FlightAware ADS-B
Tue 01:35:33 AM 34.2060 -110.9380 284° West 476 548 36,000 86 Level FlightAware ADS-B
Tue 01:36:09 AM 34.2240 -111.0290 283° West 473 544 36,100  Climbing FlightAware ADS-B
Tue 01:36:41 AM 34.2410 -111.1100 284° West 470 541 36,000 -88 Descending FlightAware ADS-B
Tue 01:37:17 AM 34.2580 -111.1980 283° West 470 541 36,000  Level FlightAware ADS-B
Tue 01:37:56 AM 34.2780 -111.2990 284° West 471 542 36,000  Level FlightAware ADS-B
Tue 01:38:31 AM 34.2960 -111.3930 283° West 471 542 36,000  Level FlightAware ADS-B
Tue 01:39:03 AM 34.3120 -111.4740 283° West 472 543 36,000  Level FlightAware ADS-B
Tue 01:39:39 AM 34.3300 -111.5670 283° West 472 543 36,000  Level FlightAware ADS-B
Tue 01:40:15 AM 34.3480 -111.6590 283° West 472 543 36,000  Level FlightAware ADS-B
Tue 01:40:51 AM 34.3660 -111.7520 283° West 471 542 36,000  Level FlightAware ADS-B
Tue 01:41:27 AM 34.3830 -111.8430 283° West 471 542 36,000  Level FlightAware ADS-B
Tue 01:41:59 AM 34.3990 -111.9240 283° West 471 542 36,000  Level FlightAware ADS-B
Tue 01:42:35 AM 34.4160 -112.0170 283° West 470 541 36,000  Level FlightAware ADS-B
Tue 01:43:13 AM 34.4350 -112.1140 283° West 469 540 36,000  Level FlightAware ADS-B
Tue 01:43:45 AM 34.4510 -112.1970 283° West 467 537 36,000  Level FlightAware ADS-B
Tue 01:44:21 AM 34.4680 -112.2880 283° West 466 536 36,000  Level FlightAware ADS-B
Tue 01:44:57 AM 34.4850 -112.3790 283° West 467 537 36,000  Level FlightAware ADS-B
Tue 01:45:32 AM 34.5010 -112.4680 282° West 467 537 36,000  Level FlightAware ADS-B
Tue 01:46:05 AM 34.5170 -112.5530 283° West 468 539 36,000  Level FlightAware ADS-B
Tue 01:46:41 AM 34.5340 -112.6440 283° West 469 540 36,000  Level FlightAware ADS-B
Tue 01:47:17 AM 34.5510 -112.7380 282° West 472 543 36,000  Level FlightAware ADS-B
Tue 01:47:49 AM 34.5670 -112.8210 283° West 472 543 36,000  Level FlightAware ADS-B
Tue 01:48:23 AM 34.5820 -112.9080 282° West 472 543 36,000  Level FlightAware ADS-B
Tue 01:49:03 AM 34.6010 -113.0120 283° West 471 542 36,000  Level FlightAware ADS-B
Tue 01:49:35 AM 34.6160 -113.0950 282° West 471 542 36,000  Level FlightAware ADS-B
Tue 01:50:11 AM 34.6330 -113.1870 283° West 470 541 36,000  Level FlightAware ADS-B
Tue 01:50:47 AM 34.6490 -113.2800 282° West 469 540 36,000 88 Level FlightAware ADS-B
Tue 01:51:19 AM 34.6640 -113.3610 283° West 467 537 36,100  Climbing FlightAware ADS-B
Tue 01:51:55 AM 34.6800 -113.4540 282° West 465 535 36,000 -82 Descending FlightAware ADS-B
Tue 01:52:32 AM 34.6960 -113.5460 282° West 462 532 36,000 333 Level FlightAware ADS-B
Tue 01:53:07 AM 34.7120 -113.6340 282° West 456 525 36,400 985 Climbing FlightAware ADS-B
Tue 01:53:39 AM 34.7260 -113.7150 282° West 449 517 37,100 1,286 Climbing FlightAware ADS-B
Tue 01:54:17 AM 34.7420 -113.8070 282° West 442 509 37,900 730 Climbing FlightAware ADS-B
Tue 01:54:53 AM 34.7580 -113.8970 282° West 451 519 38,000 88 Climbing FlightAware ADS-B
Tue 01:55:25 AM 34.7720 -113.9770 282° West 460 529 38,000  Level FlightAware ADS-B
Tue 01:56:01 AM 34.7870 -114.0670 281° West 459 528 38,000  Level FlightAware ADS-B
Tue 01:56:37 AM 34.8020 -114.1560 282° West 459 528 38,000  Level FlightAware ADS-B
Tue 01:57:09 AM 34.8160 -114.2380 282° West 459 528 38,000  Level FlightAware ADS-B
Tue 01:57:45 AM 34.8320 -114.3300 282° West 460 529 38,000  Level FlightAware ADS-B
Tue 01:58:21 AM 34.8470 -114.4190 282° West 457 526 38,000  Level FlightAware ADS-B
Tue 01:58:57 AM 34.8620 -114.5090 282° West 448 516 38,000  Level FlightAware ADS-B
Tue 01:59:29 AM 34.8750 -114.5900 281° West 452 520 38,000  Level FlightAware ADS-B
Tue 02:00:05 AM 34.8910 -114.6800 282° West 464 534 38,000  Level FlightAware ADS-B
Tue 02:00:41 AM 34.9060 -114.7730 281° West 471 542 38,000  Level FlightAware ADS-B
Tue 02:01:18 AM 34.9220 -114.8680 282° West 473 544 38,000  Level FlightAware ADS-B
Tue 02:01:49 AM 34.9360 -114.9510 282° West 473 544 38,000  Level FlightAware ADS-B
Tue 02:02:23 AM 34.9490 -115.0340 281° West 471 542 38,000  Level FlightAware ADS-B
Tue 02:03:03 AM 34.9660 -115.1400 281° West 470 541 38,000  Level FlightAware ADS-B
Tue 02:03:32 AM 34.9780 -115.2140 281° West 470 541 38,000  Level FlightAware ADS-B
Tue 02:04:11 AM 34.9950 -115.3190 281° West 471 542 38,000  Level FlightAware ADS-B
Tue 02:04:45 AM 35.0090 -115.4070 281° West 469 540 38,000  Level FlightAware ADS-B
Tue 02:05:23 AM 35.0290 -115.5060 284° West 470 541 38,000  Level FlightAware ADS-B
Tue 02:05:55 AM 35.0480 -115.5880 286° West 468 539 38,000  Level FlightAware ADS-B
Tue 02:06:29 AM 35.0660 -115.6700 285° West 467 537 38,000  Level FlightAware ADS-B
Tue 02:07:05 AM 35.0860 -115.7650 284° West 466 536 38,000  Level FlightAware ADS-B
Tue 02:07:52 AM 35.1080 -115.8720 284° West 468 539 38,000  Level FlightAware ADS-B
Tue 02:08:28 AM 35.1240 -115.9500 284° West 468 539 38,000  Level FlightAware ADS-B
Tue 02:09:05 AM 35.1410 -116.0310 284° West 468 539 38,000  Level FlightAware ADS-B
Tue 02:09:41 AM 35.1570 -116.1100 284° West 468 539 38,000 86 Level FlightAware ADS-B
Tue 02:10:15 AM 35.1880 -116.2470 286° West 473 544 38,100 85 Climbing FlightAware ADS-B
Tue 02:10:52 AM 35.2090 -116.3480 284° West 473 544 38,100 -87 Level FlightAware ADS-B
Tue 02:11:24 AM 35.2260 -116.4320 284° West 473 544 38,000 -94 Descending FlightAware ADS-B
Tue 02:11:56 AM 35.2440 -116.5160 285° West 473 544 38,000  Level FlightAware ADS-B
Tue 02:12:33 AM 35.2640 -116.6120 284° West 474 545 38,000  Level FlightAware ADS-B
Tue 02:13:10 AM 35.2830 -116.7050 284° West 474 545 38,000  Level FlightAware ADS-B
Tue 02:13:45 AM 35.3020 -116.7980 284° West 471 542 38,000  Level FlightAware ADS-B
Tue 02:14:22 AM 35.3210 -116.8910 284° West 468 539 38,000  Level FlightAware ADS-B
Tue 02:14:52 AM 35.3360 -116.9680 283° West 466 536 38,000  Level FlightAware ADS-B
Tue 02:15:30 AM 35.3560 -117.0630 284° West 466 536 38,000  Level FlightAware ADS-B
Tue 02:16:04 AM 35.3740 -117.1540 284° West 465 535 38,000  Level FlightAware ADS-B
Tue 02:16:42 AM 35.3930 -117.2510 284° West 465 535 38,000  Level FlightAware ADS-B
Tue 02:17:13 AM 35.4090 -117.3290 284° West 463 533 38,000  Level FlightAware ADS-B
Tue 02:17:50 AM 35.4270 -117.4220 283° West 463 533 38,000  Level FlightAware ADS-B
Tue 02:18:26 AM 35.4450 -117.5140 284° West 461 531 38,000  Level FlightAware ADS-B
Tue 02:18:59 AM 35.4620 -117.5980 284° West 462 532 38,000  Level FlightAware ADS-B
Tue 02:19:32 AM 35.4780 -117.6790 284° West 463 533 38,000  Level FlightAware ADS-B
Tue 02:20:12 AM 35.4960 -117.7730 283° West 464 534 38,000  Level FlightAware ADS-B
Tue 02:20:48 AM 35.5100 -117.8520 282° West 464 534 38,000  Level FlightAware ADS-B
Tue 02:21:19 AM 35.5310 -117.9530 284° West 463 533 38,000  Level FlightAware ADS-B
Tue 02:21:55 AM 35.5500 -118.0490 284° West 463 533 38,000  Level FlightAware ADS-B
Tue 02:22:32 AM 35.5680 -118.1420 283° West 462 532 38,000  Level FlightAware ADS-B
Tue 02:23:02 AM 35.5810 -118.2140 283° West 460 529 38,000  Level FlightAware ADS-B
Tue 02:23:41 AM 35.6010 -118.3190 283° West 459 528 38,000  Level FlightAware ADS-B
Tue 02:24:22 AM 35.6200 -118.4190 283° West 460 529 38,000  Level FlightAware ADS-B
Tue 02:25:02 AM 35.6400 -118.5240 283° West 460 529 38,000  Level FlightAware ADS-B
Tue 02:25:39 AM 35.6570 -118.6140 283° West 459 528 38,000  Level FlightAware ADS-B
Tue 02:26:16 AM 35.6750 -118.7110 283° West 458 527 38,000  Level FlightAware ADS-B
Tue 02:26:48 AM 35.6900 -118.7930 283° West 458 527 38,000  Level FlightAware ADS-B
Tue 02:27:24 AM 35.7060 -118.8810 283° West 457 526 38,000  Level FlightAware ADS-B
Tue 02:28:00 AM 35.7240 -118.9750 283° West 457 526 38,000  Level FlightAware ADS-B
Tue 02:28:36 AM 35.7400 -119.0650 282° West 457 526 38,000  Level FlightAware ADS-B
Tue 02:29:08 AM 35.7550 -119.1460 283° West 454 522 38,000  Level FlightAware ADS-B
Tue 02:29:44 AM 35.7720 -119.2380 283° West 453 521 38,000  Level FlightAware ADS-B
Tue 02:30:20 AM 35.7880 -119.3290 282° West 452 520 38,000  Level FlightAware ADS-B
Tue 02:30:56 AM 35.8040 -119.4170 283° West 453 521 38,000  Level FlightAware ADS-B
Tue 02:31:28 AM 35.8190 -119.4990 283° West 453 521 38,000  Level FlightAware ADS-B
Tue 02:32:04 AM 35.8350 -119.5900 282° West 453 521 38,000  Level FlightAware ADS-B
Tue 02:32:41 AM 35.8500 -119.6760 282° West 453 521 38,000  Level FlightAware ADS-B
Tue 02:33:13 AM 35.8660 -119.7660 282° West 453 521 38,000  Level FlightAware ADS-B
Tue 02:33:50 AM 35.8820 -119.8560 282° West 454 522 38,000  Level FlightAware ADS-B
Tue 02:34:26 AM 35.8980 -119.9470 282° West 453 521 38,000  Level FlightAware ADS-B
Tue 02:34:59 AM 35.9110 -120.0190 283° West 453 521 38,000  Level FlightAware ADS-B
Tue 02:35:33 AM 35.9280 -120.1160 282° West 450 518 38,000  Level FlightAware ADS-B
Tue 02:36:06 AM 35.9410 -120.1960 281° West 449 517 38,000  Level FlightAware ADS-B
Tue 02:36:46 AM 35.9580 -120.2960 282° West 449 517 38,000  Level FlightAware ADS-B
Tue 02:37:26 AM 35.9760 -120.3970 282° West 449 517 38,000  Level FlightAware ADS-B
Tue 02:38:03 AM 35.9890 -120.4780 281° West 449 517 38,000  Level FlightAware ADS-B
Tue 02:38:37 AM 36.0070 -120.5780 283° West 452 520 38,000 90 Level FlightAware ADS-B
Tue 02:39:10 AM 36.0200 -120.6570 282° West 451 519 38,100 86 Climbing FlightAware ADS-B
Tue 02:39:47 AM 36.0360 -120.7530 282° West 449 517 38,100 -82 Level FlightAware ADS-B
Tue 02:40:23 AM 36.0510 -120.8430 282° West 448 516 38,000 -87 Descending FlightAware ADS-B
Tue 02:40:56 AM 36.0650 -120.9240 282° West 447 514 38,000 -176 Level FlightAware ADS-B
Tue 02:41:31 AM 36.0790 -121.0100 281° West 444 511 37,800 -676 Descending FlightAware ADS-B
Tue 02:42:07 AM 36.0940 -121.1040 281° West 446 513 37,200 -1,304 Descending FlightAware ADS-B
Tue 02:42:40 AM 36.1070 -121.1840 281° West 444 511 36,300 -1,971 Descending FlightAware ADS-B
Tue 02:43:17 AM 36.1220 -121.2760 281° West 444 511 34,900 -2,743 Descending FlightAware ADS-B
Tue 02:43:50 AM 36.1400 -121.3550 286° West 463 533 33,100 -3,237 Descending FlightAware ADS-B
Tue 02:44:33 AM 36.2020 -121.4490 309° West 492 566 30,800 -3,385 Descending FlightAware ADS-B
Tue 02:45:08 AM 36.2640 -121.5060 323° Northwest 480 552 28,700 -3,130 Descending FlightAware ADS-B
Tue 02:45:42 AM 36.3220 -121.5620 322° Northwest 474 545 27,200 -2,382 Descending FlightAware ADS-B
Tue 02:46:16 AM 36.3830 -121.6190 323° Northwest 463 533 26,000 -2,197 Descending FlightAware ADS-B
Tue 02:46:53 AM 36.4450 -121.6780 323° Northwest 454 522 24,600 -2,314 Descending FlightAware ADS-B
Tue 02:47:26 AM 36.5000 -121.7300 323° Northwest 444 511 23,300 -2,282 Descending FlightAware ADS-B
Tue 02:48:04 AM 36.5610 -121.7890 322° Northwest 431 496 21,900 -2,270 Descending FlightAware ADS-B
Tue 02:48:40 AM 36.6150 -121.8400 323° Northwest 422 486 20,500 -2,239 Descending FlightAware ADS-B
Tue 02:49:11 AM 36.6620 -121.8850 322° Northwest 413 475 19,400 -2,507 Descending FlightAware ADS-B
Tue 02:49:47 AM 36.7190 -121.9390 323° Northwest 405 466 17,700 -2,750 Descending FlightAware ADS-B
Tue 02:50:23 AM 36.7770 -121.9740 334° Northwest 411 473 16,100 -2,595 Descending FlightAware ADS-B
Tue 02:51:01 AM 36.8490 -121.9920 349° North 402 463 14,500 -2,571 Descending FlightAware ADS-B
Tue 02:51:33 AM 36.9070 -122.0070 348° North 393 452 13,100 -2,492 Descending FlightAware ADS-B
Tue 02:52:06 AM 36.9650 -122.0220 348° North 371 427 11,800 -1,750 Descending FlightAware ADS-B
Tue 02:52:45 AM 37.0260 -122.0380 348° North 326 375 11,000 -1,040 Descending FlightAware ADS-B
Tue 02:53:21 AM 37.0750 -122.0510 348° North 295 339 10,500 -762 Descending FlightAware ADS-B
Tue 02:53:48 AM 37.1110 -122.0630 345° North 279 321 10,200 -769 Descending FlightAware ADS-B
Tue 02:54:00 AM 37.1210 -122.0730 321° Northwest 272 313 10,000 -1,200 Descending FlightAware ADS-B
Tue 02:54:08 AM 37.1280 -122.0850 306° West 263 303 9,800 -1,125 Descending FlightAware ADS-B
Tue 02:54:16 AM 37.1310 -122.0950 291° West 257 296 9,700 -1,071 Descending FlightAware ADS-B
Tue 02:54:36 AM 37.1400 -122.1230 292° West 254 292 9,300 -1,116 Descending FlightAware ADS-B
Tue 02:54:59 AM 37.1489 -122.1550 289° West 254 292 8,900 -1,105 Descending FlightAware ADS-B
Tue 02:55:14 AM 37.1548 -122.1760 289° West 252 290 8,600 -1,161 Descending FlightAware ADS-B
Tue 02:55:30 AM 37.1613 -122.1980 290° West 252 290 8,300 -938 Descending FlightAware ADS-B
Tue 02:55:46 AM 37.1675 -122.2190 290° West 245 282 8,100 -462 Descending FlightAware ADS-B
Tue 02:56:09 AM 37.1760 -122.2490 290° West 242 278 8,000 -154 Descending FlightAware ADS-B
Tue 02:56:25 AM 37.1820 -122.2710 289° West 246 283 8,000  Level FlightAware ADS-B
Tue 02:57:01 AM 37.1956 -122.3190 290° West 246 283 8,000 -405 Level FlightAware ADS-B
Tue 02:57:39 AM 37.2250 -122.3580 313° West 246 283 7,500 -818 Descending FlightAware ADS-B
Tue 02:57:45 AM 37.2308 -122.3620 331° Northwest 255 293 7,400 -857 Descending FlightAware ADS-B
Tue 02:58:07 AM 37.2534 -122.3800 328° Northwest 252 290 7,100 -348 Descending FlightAware ADS-B
Tue 02:58:54 AM 37.2990 -122.4160 328° Northwest 252 290 7,000 -95 Descending FlightAware ADS-B
Tue 02:59:10 AM 37.3140 -122.4280 328° Northwest 251 289 7,000 -167 Level FlightAware ADS-B
Tue 02:59:30 AM 37.3350 -122.4410 334° Northwest 252 290 6,900 -429 Descending FlightAware ADS-B
Tue 02:59:38 AM 37.3440 -122.4430 350° North 252 290 6,800 -1,071 Descending FlightAware ADS-B
Tue 02:59:58 AM 37.3670 -122.4340 17° North 254 292 6,400 -1,125 Descending FlightAware ADS-B
Tue 03:00:10 AM 37.3750 -122.4210 52° Northeast 250 288 6,200 -1,143 Descending FlightAware ADS-B
Tue 03:00:19 AM 37.3790 -122.4100 65° Northeast 246 283 6,000 -667 Descending FlightAware ADS-B
Tue 03:00:28 AM 37.3813 -122.3950 79° East 252 290 6,000  Level FlightAware ADS-B
Tue 03:00:43 AM 37.3839 -122.3730 82° East 248 285 6,000 -194 Level FlightAware ADS-B
Tue 03:00:59 AM 37.3863 -122.3520 82° East 247 284 5,900  Descending FlightAware ADS-B
Tue 03:01:14 AM 37.3888 -122.3300 82° East 235 270 6,000 194 Climbing FlightAware ADS-B
Tue 03:01:30 AM 37.3911 -122.3100 82° East 222 255 6,000  Level FlightAware ADS-B
Tue 03:01:47 AM 37.3937 -122.2890 81° East 222 255 6,000  Level FlightAware ADS-B
Tue 03:02:20 AM 37.3990 -122.2480 81° East 211 243 6,000 -367 Level FlightAware ADS-B
Tue 03:02:36 AM 37.4057 -122.2300 65° Northeast 222 255 5,700 -1,043 Descending FlightAware ADS-B
Tue 03:02:43 AM 37.4097 -122.2230 54° Northeast 214 246 5,600 -1,125 Descending FlightAware ADS-B
Tue 03:02:52 AM 37.4151 -122.2150 50° Northeast 214 246 5,400 -923 Descending FlightAware ADS-B
Tue 03:02:56 AM 37.4181 -122.2120 38° Northeast 214 246 5,400 -750 Level FlightAware ADS-B
Tue 03:03:00 AM 37.4215 -122.2090 35° Northeast 214 246 5,300 -1,500 Descending FlightAware ADS-B
Tue 03:03:04 AM 37.4252 -122.2070 23° Northeast 213 245 5,200 -900 Descending FlightAware ADS-B
Tue 03:03:20 AM 37.4391 -122.1990 25° Northeast 207 238 5,000 -818 Descending FlightAware ADS-B
Tue 03:03:26 AM 37.4442 -122.1960 25° Northeast 207 238 4,900 -1,333 Descending FlightAware ADS-B
Tue 03:03:29 AM 37.4471 -122.1950 15° North 207 238 4,800 -1,714 Descending FlightAware ADS-B
Tue 03:03:33 AM 37.4507 -122.1940 12° North 206 237 4,700 -1,500 Descending FlightAware ADS-B
Tue 03:03:37 AM 37.4543 -122.1940 360° North 205 236 4,600 -1,385 Descending FlightAware ADS-B
Tue 03:04:12 AM 37.4859 -122.1960 357° North 204 235 3,800 -1,435 Descending FlightAware ADS-B
Tue 03:04:23 AM 37.4954 -122.1970 355° North 188 216 3,500 -1,920 Descending FlightAware ADS-B
Tue 03:04:37 AM 37.5081 -122.1970 360° North 189 217 3,000 -2,000 Descending FlightAware ADS-B
Tue 03:04:47 AM 37.5170 -122.1980 355° North 189 217 2,700 -1,333 Descending FlightAware ADS-B
Tue 03:04:55 AM 37.5233 -122.1980 360° North 186 214 2,600 -353 Descending FlightAware ADS-B
Tue 03:05:04 AM 37.5311 -122.1990 354° North 180 207 2,600  Level FlightAware ADS-B
Tue 03:05:07 AM 37.5339 -122.1990 360° North 183 211 2,600  Level FlightAware ADS-B
Tue 03:05:11 AM 37.5368 -122.2000 345° North 182 209 2,600  Level FlightAware ADS-B
Tue 03:05:14 AM 37.5395 -122.2020 330° Northwest 183 211 2,600 -857 Level FlightAware ADS-B
Tue 03:05:18 AM 37.5416 -122.2030 339° North 182 209 2,500 -750 Descending FlightAware ADS-B
Tue 03:05:22 AM 37.5446 -122.2060 322° Northwest 178 205 2,500 -857 Level FlightAware ADS-B
Tue 03:05:25 AM 37.5460 -122.2070 330° Northwest 174 200 2,400 -857 Descending FlightAware ADS-B
Tue 03:05:29 AM 37.5482 -122.2110 305° West 168 193 2,400 -750 Level FlightAware ADS-B
Tue 03:05:33 AM 37.5502 -122.2140 310° West 162 186 2,300 -1,091 Descending FlightAware ADS-B
Tue 03:05:40 AM 37.5529 -122.2190 304° West 153 176 2,200 -706 Descending FlightAware ADS-B
Tue 03:05:50 AM 37.5561 -122.2260 300° West 146 168 2,100 -667 Descending FlightAware ADS-B
Tue 03:05:58 AM 37.5592 -122.2330 299° West 149 171 2,000 -750 Descending FlightAware ADS-B
Tue 03:06:14 AM 37.5645 -122.2450 299° West 146 168 1,800 -522 Descending FlightAware ADS-B
Tue 03:06:21 AM 37.5667 -122.2500 299° West 146 168 1,800 -444 Level FlightAware ADS-B
Tue 03:06:41 AM 37.5724 -122.2650 296° West 147 169 1,600 -563 Descending FlightAware ADS-B
Tue 03:06:53 AM 37.5756 -122.2740 294° West 134 154 1,500 -818 Descending FlightAware ADS-B
Tue 03:07:03 AM 37.5783 -122.2810 296° West 132 152 1,300 -1,000 Descending FlightAware ADS-B
Tue 03:07:11 AM 37.5807 -122.2860 301° West 128 147 1,200 -800 Descending FlightAware ADS-B
Tue 03:07:18 AM 37.5828 -122.2910 298° West 126 145 1,100 -500 Descending FlightAware ADS-B
Tue 03:07:35 AM 37.5877 -122.3020 299° West 127 146 1,000 -486 Descending FlightAware ADS-B
Tue 03:07:55 AM 37.5932 -122.3150 298° West 130 150 800 -652 Descending FlightAware ADS-B
Tue 03:08:21 AM 37.6006 -122.3320 299° West 129 148 500 -750 Descending FlightAware ADS-B
Tue 03:08:35 AM 37.6046 -122.3420 297° West 131 151 300 -720 Descending FlightAware ADS-B
Tue 03:08:46 AM 37.6076 -122.3490 298° West 132 152 200 -375 Descending FlightAware ADS-B
Tue 03:08:51 AM 37.6092 -122.3520 304° West 132 152 200 -162 Level FlightAware ADS-B
Tue 03:09:23 AM 37.6160 -122.3700 296° West 132 152 100 -188 Descending FlightAware ADS-B
Tue 03:17:00 AM 37.6167 -122.3667 322° Northwest  Level FlightAware Approximate

Login

Don't have an account? Register now (free) for customized features, flight alerts, and more!